sensor_id;sensor_type;location;lat;lon;timestamp;P1;durP1;ratioP1;P2;durP2;ratioP2
67696;SDS011;54486;51.442;6.778;2023-12-20T00:02:17;23.38;;;9.55;;
67696;SDS011;54486;51.442;6.778;2023-12-20T00:04:44;23.27;;;9.60;;
67696;SDS011;54486;51.442;6.778;2023-12-20T00:07:11;24.58;;;10.30;;
67696;SDS011;54486;51.442;6.778;2023-12-20T00:09:39;22.30;;;9.98;;
67696;SDS011;54486;51.442;6.778;2023-12-20T00:12:06;23.83;;;9.18;;
67696;SDS011;54486;51.442;6.778;2023-12-20T00:14:33;23.23;;;9.83;;
67696;SDS011;54486;51.442;6.778;2023-12-20T00:17:00;22.90;;;9.55;;
67696;SDS011;54486;51.442;6.778;2023-12-20T00:19:27;21.33;;;9.87;;
67696;SDS011;54486;51.442;6.778;2023-12-20T00:21:57;22.02;;;9.18;;
67696;SDS011;54486;51.442;6.778;2023-12-20T00:24:24;21.50;;;8.88;;
67696;SDS011;54486;51.442;6.778;2023-12-20T00:26:52;19.88;;;8.80;;
67696;SDS011;54486;51.442;6.778;2023-12-20T00:29:19;24.30;;;9.40;;
67696;SDS011;54486;51.442;6.778;2023-12-20T00:31:47;21.77;;;8.13;;
67696;SDS011;54486;51.442;6.778;2023-12-20T00:34:14;18.92;;;7.95;;
67696;SDS011;54486;51.442;6.778;2023-12-20T00:36:41;18.45;;;8.02;;
67696;SDS011;54486;51.442;6.778;2023-12-20T00:39:09;21.08;;;7.25;;
67696;SDS011;54486;51.442;6.778;2023-12-20T00:41:36;18.83;;;7.90;;
67696;SDS011;54486;51.442;6.778;2023-12-20T00:44:04;19.80;;;6.97;;
67696;SDS011;54486;51.442;6.778;2023-12-20T00:46:31;17.80;;;6.57;;
67696;SDS011;54486;51.442;6.778;2023-12-20T00:48:58;16.63;;;6.95;;
67696;SDS011;54486;51.442;6.778;2023-12-20T00:51:25;18.42;;;7.20;;
67696;SDS011;54486;51.442;6.778;2023-12-20T00:53:52;18.90;;;7.20;;
67696;SDS011;54486;51.442;6.778;2023-12-20T00:56:21;16.73;;;7.22;;
67696;SDS011;54486;51.442;6.778;2023-12-20T00:58:48;17.25;;;6.82;;
67696;SDS011;54486;51.442;6.778;2023-12-20T01:01:15;22.10;;;6.90;;
67696;SDS011;54486;51.442;6.778;2023-12-20T01:03:43;17.38;;;7.00;;
67696;SDS011;54486;51.442;6.778;2023-12-20T01:06:10;19.70;;;6.75;;
67696;SDS011;54486;51.442;6.778;2023-12-20T01:08:37;18.90;;;7.20;;
67696;SDS011;54486;51.442;6.778;2023-12-20T01:11:05;16.80;;;7.40;;
67696;SDS011;54486;51.442;6.778;2023-12-20T01:13:33;18.02;;;7.75;;
67696;SDS011;54486;51.442;6.778;2023-12-20T01:16:00;19.90;;;7.75;;
67696;SDS011;54486;51.442;6.778;2023-12-20T01:18:28;18.70;;;7.87;;
67696;SDS011;54486;51.442;6.778;2023-12-20T01:20:54;17.33;;;7.60;;
67696;SDS011;54486;51.442;6.778;2023-12-20T01:23:22;19.48;;;7.90;;
67696;SDS011;54486;51.442;6.778;2023-12-20T01:25:49;18.95;;;8.10;;
67696;SDS011;54486;51.442;6.778;2023-12-20T01:28:16;20.10;;;8.02;;
67696;SDS011;54486;51.442;6.778;2023-12-20T01:30:43;20.48;;;8.93;;
67696;SDS011;54486;51.442;6.778;2023-12-20T01:33:11;20.20;;;8.10;;
67696;SDS011;54486;51.442;6.778;2023-12-20T01:35:38;20.23;;;7.68;;
67696;SDS011;54486;51.442;6.778;2023-12-20T01:38:05;19.73;;;7.13;;
67696;SDS011;54486;51.442;6.778;2023-12-20T01:40:32;16.00;;;6.55;;
67696;SDS011;54486;51.442;6.778;2023-12-20T01:43:06;22.00;;;7.68;;
67696;SDS011;54486;51.442;6.778;2023-12-20T01:45:39;19.95;;;6.63;;
67696;SDS011;54486;51.442;6.778;2023-12-20T01:48:07;18.75;;;6.78;;
67696;SDS011;54486;51.442;6.778;2023-12-20T01:50:36;17.08;;;6.25;;
67696;SDS011;54486;51.442;6.778;2023-12-20T01:53:04;17.37;;;7.10;;
67696;SDS011;54486;51.442;6.778;2023-12-20T01:55:34;20.08;;;7.38;;
67696;SDS011;54486;51.442;6.778;2023-12-20T01:58:04;19.65;;;6.75;;
67696;SDS011;54486;51.442;6.778;2023-12-20T02:00:32;19.23;;;6.35;;
67696;SDS011;54486;51.442;6.778;2023-12-20T02:03:01;21.15;;;7.05;;
67696;SDS011;54486;51.442;6.778;2023-12-20T02:05:32;16.90;;;7.10;;
67696;SDS011;54486;51.442;6.778;2023-12-20T02:08:02;17.58;;;7.15;;
67696;SDS011;54486;51.442;6.778;2023-12-20T02:10:29;17.00;;;7.13;;
67696;SDS011;54486;51.442;6.778;2023-12-20T02:12:56;18.77;;;7.10;;
67696;SDS011;54486;51.442;6.778;2023-12-20T02:15:23;18.70;;;7.20;;
67696;SDS011;54486;51.442;6.778;2023-12-20T02:17:50;20.70;;;8.45;;
67696;SDS011;54486;51.442;6.778;2023-12-20T02:20:18;19.35;;;8.27;;
67696;SDS011;54486;51.442;6.778;2023-12-20T02:22:45;28.00;;;8.60;;
67696;SDS011;54486;51.442;6.778;2023-12-20T02:25:12;20.52;;;7.95;;
67696;SDS011;54486;51.442;6.778;2023-12-20T02:27:39;19.10;;;8.35;;
67696;SDS011;54486;51.442;6.778;2023-12-20T02:30:06;21.13;;;7.80;;
67696;SDS011;54486;51.442;6.778;2023-12-20T02:32:34;23.23;;;7.93;;
67696;SDS011;54486;51.442;6.778;2023-12-20T02:35:01;23.23;;;7.70;;
67696;SDS011;54486;51.442;6.778;2023-12-20T02:37:28;18.60;;;6.90;;
67696;SDS011;54486;51.442;6.778;2023-12-20T02:39:55;20.65;;;6.85;;
67696;SDS011;54486;51.442;6.778;2023-12-20T02:42:22;20.60;;;6.72;;
67696;SDS011;54486;51.442;6.778;2023-12-20T02:44:49;18.30;;;6.85;;
67696;SDS011;54486;51.442;6.778;2023-12-20T02:47:17;19.50;;;6.93;;
67696;SDS011;54486;51.442;6.778;2023-12-20T02:49:44;20.57;;;7.53;;
67696;SDS011;54486;51.442;6.778;2023-12-20T02:52:11;19.85;;;6.13;;
67696;SDS011;54486;51.442;6.778;2023-12-20T02:54:38;17.00;;;7.20;;
67696;SDS011;54486;51.442;6.778;2023-12-20T02:57:05;19.90;;;6.15;;
67696;SDS011;54486;51.442;6.778;2023-12-20T02:59:33;18.17;;;6.50;;
67696;SDS011;54486;51.442;6.778;2023-12-20T03:02:00;17.95;;;6.30;;
67696;SDS011;54486;51.442;6.778;2023-12-20T03:04:27;16.33;;;5.82;;
67696;SDS011;54486;51.442;6.778;2023-12-20T03:06:54;18.80;;;5.90;;
67696;SDS011;54486;51.442;6.778;2023-12-20T03:09:21;17.27;;;5.05;;
67696;SDS011;54486;51.442;6.778;2023-12-20T03:11:49;20.17;;;6.03;;
67696;SDS011;54486;51.442;6.778;2023-12-20T03:14:16;14.38;;;4.90;;
67696;SDS011;54486;51.442;6.778;2023-12-20T03:16:47;15.93;;;5.38;;
67696;SDS011;54486;51.442;6.778;2023-12-20T03:19:17;19.15;;;5.15;;
67696;SDS011;54486;51.442;6.778;2023-12-20T03:21:45;14.50;;;4.43;;
67696;SDS011;54486;51.442;6.778;2023-12-20T03:24:12;15.63;;;4.55;;
67696;SDS011;54486;51.442;6.778;2023-12-20T03:26:39;16.60;;;4.50;;
67696;SDS011;54486;51.442;6.778;2023-12-20T03:29:06;15.50;;;4.47;;
67696;SDS011;54486;51.442;6.778;2023-12-20T03:31:33;14.02;;;3.80;;
67696;SDS011;54486;51.442;6.778;2023-12-20T03:34:00;16.88;;;4.60;;
67696;SDS011;54486;51.442;6.778;2023-12-20T03:36:28;16.83;;;4.00;;
67696;SDS011;54486;51.442;6.778;2023-12-20T03:38:55;16.33;;;3.80;;
67696;SDS011;54486;51.442;6.778;2023-12-20T03:41:22;17.55;;;4.03;;
67696;SDS011;54486;51.442;6.778;2023-12-20T03:43:49;13.05;;;3.63;;
67696;SDS011;54486;51.442;6.778;2023-12-20T03:46:16;13.55;;;3.97;;
67696;SDS011;54486;51.442;6.778;2023-12-20T03:48:43;16.58;;;4.10;;
67696;SDS011;54486;51.442;6.778;2023-12-20T03:51:10;15.30;;;3.88;;
67696;SDS011;54486;51.442;6.778;2023-12-20T03:53:38;17.52;;;3.58;;
67696;SDS011;54486;51.442;6.778;2023-12-20T03:56:07;14.70;;;3.20;;
67696;SDS011;54486;51.442;6.778;2023-12-20T03:58:34;15.57;;;3.13;;
67696;SDS011;54486;51.442;6.778;2023-12-20T04:01:01;16.45;;;3.70;;
67696;SDS011;54486;51.442;6.778;2023-12-20T04:03:29;14.47;;;3.23;;
67696;SDS011;54486;51.442;6.778;2023-12-20T04:05:56;16.42;;;3.78;;
67696;SDS011;54486;51.442;6.778;2023-12-20T04:08:23;15.55;;;3.58;;
67696;SDS011;54486;51.442;6.778;2023-12-20T04:10:50;13.75;;;3.25;;
67696;SDS011;54486;51.442;6.778;2023-12-20T04:13:17;13.52;;;3.17;;
67696;SDS011;54486;51.442;6.778;2023-12-20T04:15:45;15.80;;;3.65;;
67696;SDS011;54486;51.442;6.778;2023-12-20T04:18:12;16.55;;;3.33;;
67696;SDS011;54486;51.442;6.778;2023-12-20T04:20:42;18.90;;;4.15;;
67696;SDS011;54486;51.442;6.778;2023-12-20T04:23:09;15.23;;;3.42;;
67696;SDS011;54486;51.442;6.778;2023-12-20T04:25:36;12.40;;;3.30;;
67696;SDS011;54486;51.442;6.778;2023-12-20T04:28:03;15.82;;;3.65;;
67696;SDS011;54486;51.442;6.778;2023-12-20T04:30:30;17.33;;;3.97;;
67696;SDS011;54486;51.442;6.778;2023-12-20T04:32:57;18.48;;;4.15;;
67696;SDS011;54486;51.442;6.778;2023-12-20T04:35:25;15.10;;;4.13;;
67696;SDS011;54486;51.442;6.778;2023-12-20T04:37:52;15.75;;;4.30;;
67696;SDS011;54486;51.442;6.778;2023-12-20T04:40:19;15.75;;;4.03;;
67696;SDS011;54486;51.442;6.778;2023-12-20T04:42:46;14.95;;;3.95;;
67696;SDS011;54486;51.442;6.778;2023-12-20T04:45:13;19.45;;;4.13;;
67696;SDS011;54486;51.442;6.778;2023-12-20T04:47:42;14.57;;;4.55;;
67696;SDS011;54486;51.442;6.778;2023-12-20T04:50:10;19.50;;;4.18;;
67696;SDS011;54486;51.442;6.778;2023-12-20T04:52:38;15.90;;;4.80;;
67696;SDS011;54486;51.442;6.778;2023-12-20T04:55:05;14.25;;;4.68;;
67696;SDS011;54486;51.442;6.778;2023-12-20T04:57:32;18.17;;;4.43;;
67696;SDS011;54486;51.442;6.778;2023-12-20T04:59:59;18.40;;;5.10;;
67696;SDS011;54486;51.442;6.778;2023-12-20T05:02:27;17.02;;;5.03;;
67696;SDS011;54486;51.442;6.778;2023-12-20T05:04:54;14.93;;;5.33;;
67696;SDS011;54486;51.442;6.778;2023-12-20T05:07:22;18.00;;;5.15;;
67696;SDS011;54486;51.442;6.778;2023-12-20T05:09:49;15.63;;;5.38;;
67696;SDS011;54486;51.442;6.778;2023-12-20T05:12:16;14.88;;;4.75;;
67696;SDS011;54486;51.442;6.778;2023-12-20T05:14:43;17.75;;;5.63;;
67696;SDS011;54486;51.442;6.778;2023-12-20T05:17:10;16.93;;;5.57;;
67696;SDS011;54486;51.442;6.778;2023-12-20T05:19:37;19.42;;;5.63;;
67696;SDS011;54486;51.442;6.778;2023-12-20T05:22:04;18.30;;;5.85;;
67696;SDS011;54486;51.442;6.778;2023-12-20T05:24:31;20.55;;;5.90;;
67696;SDS011;54486;51.442;6.778;2023-12-20T05:26:58;17.50;;;5.93;;
67696;SDS011;54486;51.442;6.778;2023-12-20T05:29:26;19.95;;;5.97;;
67696;SDS011;54486;51.442;6.778;2023-12-20T05:31:53;17.40;;;5.70;;
67696;SDS011;54486;51.442;6.778;2023-12-20T05:34:20;19.85;;;6.05;;
67696;SDS011;54486;51.442;6.778;2023-12-20T05:36:48;19.83;;;6.32;;
67696;SDS011;54486;51.442;6.778;2023-12-20T05:39:15;21.48;;;5.93;;
67696;SDS011;54486;51.442;6.778;2023-12-20T05:41:42;17.75;;;5.72;;
67696;SDS011;54486;51.442;6.778;2023-12-20T05:44:09;16.40;;;5.35;;
67696;SDS011;54486;51.442;6.778;2023-12-20T05:46:37;15.98;;;5.65;;
67696;SDS011;54486;51.442;6.778;2023-12-20T05:49:04;16.73;;;5.00;;
67696;SDS011;54486;51.442;6.778;2023-12-20T05:51:31;21.15;;;5.80;;
67696;SDS011;54486;51.442;6.778;2023-12-20T05:53:59;18.23;;;6.10;;
67696;SDS011;54486;51.442;6.778;2023-12-20T05:56:26;19.25;;;5.18;;
67696;SDS011;54486;51.442;6.778;2023-12-20T05:58:54;21.02;;;5.50;;
67696;SDS011;54486;51.442;6.778;2023-12-20T06:01:21;17.05;;;5.32;;
67696;SDS011;54486;51.442;6.778;2023-12-20T06:03:48;20.33;;;5.82;;
67696;SDS011;54486;51.442;6.778;2023-12-20T06:06:16;15.93;;;5.47;;
67696;SDS011;54486;51.442;6.778;2023-12-20T06:08:44;17.80;;;5.85;;
67696;SDS011;54486;51.442;6.778;2023-12-20T06:11:11;18.90;;;5.60;;
67696;SDS011;54486;51.442;6.778;2023-12-20T06:13:40;17.60;;;5.70;;
67696;SDS011;54486;51.442;6.778;2023-12-20T06:16:07;20.25;;;5.68;;
67696;SDS011;54486;51.442;6.778;2023-12-20T06:18:34;20.73;;;5.83;;
67696;SDS011;54486;51.442;6.778;2023-12-20T06:21:04;17.88;;;6.20;;
67696;SDS011;54486;51.442;6.778;2023-12-20T06:23:31;18.40;;;5.50;;
67696;SDS011;54486;51.442;6.778;2023-12-20T06:25:58;19.55;;;5.75;;
67696;SDS011;54486;51.442;6.778;2023-12-20T06:28:26;20.20;;;6.28;;
67696;SDS011;54486;51.442;6.778;2023-12-20T06:30:53;21.52;;;5.82;;
67696;SDS011;54486;51.442;6.778;2023-12-20T06:33:21;19.27;;;5.80;;
67696;SDS011;54486;51.442;6.778;2023-12-20T06:35:49;17.73;;;5.63;;
67696;SDS011;54486;51.442;6.778;2023-12-20T06:38:17;19.23;;;5.50;;
67696;SDS011;54486;51.442;6.778;2023-12-20T06:40:45;18.47;;;5.70;;
67696;SDS011;54486;51.442;6.778;2023-12-20T06:43:12;20.08;;;5.53;;
67696;SDS011;54486;51.442;6.778;2023-12-20T06:45:58;17.27;;;5.15;;
67696;SDS011;54486;51.442;6.778;2023-12-20T06:48:25;18.70;;;5.40;;
67696;SDS011;54486;51.442;6.778;2023-12-20T06:50:53;19.53;;;5.43;;
67696;SDS011;54486;51.442;6.778;2023-12-20T06:53:20;17.42;;;5.63;;
67696;SDS011;54486;51.442;6.778;2023-12-20T06:55:47;19.30;;;5.60;;
67696;SDS011;54486;51.442;6.778;2023-12-20T06:58:14;15.18;;;4.95;;
67696;SDS011;54486;51.442;6.778;2023-12-20T07:00:41;18.90;;;5.65;;
67696;SDS011;54486;51.442;6.778;2023-12-20T07:03:09;17.20;;;5.00;;
67696;SDS011;54486;51.442;6.778;2023-12-20T07:05:36;18.50;;;5.75;;
67696;SDS011;54486;51.442;6.778;2023-12-20T07:08:03;16.97;;;5.00;;
67696;SDS011;54486;51.442;6.778;2023-12-20T07:10:31;19.60;;;5.22;;
67696;SDS011;54486;51.442;6.778;2023-12-20T07:12:58;16.50;;;4.97;;
67696;SDS011;54486;51.442;6.778;2023-12-20T07:15:25;17.80;;;4.70;;
67696;SDS011;54486;51.442;6.778;2023-12-20T07:17:53;16.65;;;5.18;;
67696;SDS011;54486;51.442;6.778;2023-12-20T07:20:21;16.30;;;4.72;;
67696;SDS011;54486;51.442;6.778;2023-12-20T07:22:48;16.92;;;5.07;;
67696;SDS011;54486;51.442;6.778;2023-12-20T07:25:16;17.80;;;5.28;;
67696;SDS011;54486;51.442;6.778;2023-12-20T07:27:43;16.63;;;4.85;;
67696;SDS011;54486;51.442;6.778;2023-12-20T07:30:11;20.42;;;5.57;;
67696;SDS011;54486;51.442;6.778;2023-12-20T07:32:38;15.90;;;5.30;;
67696;SDS011;54486;51.442;6.778;2023-12-20T07:35:06;15.30;;;4.82;;
67696;SDS011;54486;51.442;6.778;2023-12-20T07:37:33;15.50;;;5.03;;
67696;SDS011;54486;51.442;6.778;2023-12-20T07:40:00;19.55;;;5.15;;
67696;SDS011;54486;51.442;6.778;2023-12-20T07:42:28;14.45;;;4.80;;
67696;SDS011;54486;51.442;6.778;2023-12-20T07:44:55;19.08;;;5.55;;
67696;SDS011;54486;51.442;6.778;2023-12-20T07:47:22;17.88;;;5.50;;
67696;SDS011;54486;51.442;6.778;2023-12-20T07:49:49;18.55;;;4.88;;
67696;SDS011;54486;51.442;6.778;2023-12-20T07:52:18;15.50;;;5.03;;
67696;SDS011;54486;51.442;6.778;2023-12-20T07:54:46;18.00;;;5.18;;
67696;SDS011;54486;51.442;6.778;2023-12-20T07:57:13;16.17;;;5.33;;
67696;SDS011;54486;51.442;6.778;2023-12-20T07:59:40;17.08;;;5.78;;
67696;SDS011;54486;51.442;6.778;2023-12-20T08:02:07;17.15;;;5.43;;
67696;SDS011;54486;51.442;6.778;2023-12-20T08:04:35;17.40;;;5.55;;
67696;SDS011;54486;51.442;6.778;2023-12-20T08:07:02;17.85;;;5.13;;
67696;SDS011;54486;51.442;6.778;2023-12-20T08:09:30;19.00;;;6.18;;
67696;SDS011;54486;51.442;6.778;2023-12-20T08:11:58;18.45;;;5.93;;
67696;SDS011;54486;51.442;6.778;2023-12-20T08:14:27;17.90;;;6.25;;
67696;SDS011;54486;51.442;6.778;2023-12-20T08:16:54;22.13;;;5.88;;
67696;SDS011;54486;51.442;6.778;2023-12-20T08:19:21;19.35;;;6.07;;
67696;SDS011;54486;51.442;6.778;2023-12-20T08:21:48;20.92;;;5.88;;
67696;SDS011;54486;51.442;6.778;2023-12-20T08:24:16;19.80;;;6.50;;
67696;SDS011;54486;51.442;6.778;2023-12-20T08:26:43;18.23;;;6.28;;
67696;SDS011;54486;51.442;6.778;2023-12-20T08:29:10;21.33;;;6.03;;
67696;SDS011;54486;51.442;6.778;2023-12-20T08:31:39;17.87;;;6.43;;
67696;SDS011;54486;51.442;6.778;2023-12-20T08:34:07;16.87;;;6.07;;
67696;SDS011;54486;51.442;6.778;2023-12-20T08:36:35;16.17;;;6.05;;
67696;SDS011;54486;51.442;6.778;2023-12-20T08:39:02;14.33;;;5.37;;
67696;SDS011;54486;51.442;6.778;2023-12-20T08:41:32;16.38;;;5.60;;
67696;SDS011;54486;51.442;6.778;2023-12-20T08:43:59;16.90;;;5.40;;
67696;SDS011;54486;51.442;6.778;2023-12-20T08:46:26;16.67;;;5.30;;
67696;SDS011;54486;51.442;6.778;2023-12-20T08:48:53;15.38;;;5.65;;
67696;SDS011;54486;51.442;6.778;2023-12-20T08:51:21;17.75;;;5.15;;
67696;SDS011;54486;51.442;6.778;2023-12-20T08:53:49;18.60;;;5.55;;
67696;SDS011;54486;51.442;6.778;2023-12-20T08:56:16;15.40;;;5.05;;
67696;SDS011;54486;51.442;6.778;2023-12-20T08:58:45;14.98;;;4.32;;
67696;SDS011;54486;51.442;6.778;2023-12-20T09:01:13;15.82;;;4.85;;
67696;SDS011;54486;51.442;6.778;2023-12-20T09:03:41;14.40;;;4.45;;
67696;SDS011;54486;51.442;6.778;2023-12-20T09:06:08;16.65;;;4.60;;
67696;SDS011;54486;51.442;6.778;2023-12-20T09:08:36;15.82;;;5.25;;
67696;SDS011;54486;51.442;6.778;2023-12-20T09:11:03;16.25;;;4.93;;
67696;SDS011;54486;51.442;6.778;2023-12-20T09:13:30;16.02;;;4.70;;
67696;SDS011;54486;51.442;6.778;2023-12-20T09:15:58;20.15;;;5.10;;
67696;SDS011;54486;51.442;6.778;2023-12-20T09:18:26;18.75;;;5.10;;
67696;SDS011;54486;51.442;6.778;2023-12-20T09:20:54;17.63;;;4.57;;
67696;SDS011;54486;51.442;6.778;2023-12-20T09:23:22;17.10;;;4.72;;
67696;SDS011;54486;51.442;6.778;2023-12-20T09:25:49;12.55;;;4.50;;
67696;SDS011;54486;51.442;6.778;2023-12-20T09:28:16;19.05;;;4.90;;
67696;SDS011;54486;51.442;6.778;2023-12-20T09:30:43;16.73;;;4.72;;
67696;SDS011;54486;51.442;6.778;2023-12-20T09:33:12;15.32;;;4.38;;
67696;SDS011;54486;51.442;6.778;2023-12-20T09:35:39;15.70;;;4.53;;
67696;SDS011;54486;51.442;6.778;2023-12-20T09:38:07;16.10;;;4.60;;
67696;SDS011;54486;51.442;6.778;2023-12-20T09:40:34;17.20;;;4.80;;
67696;SDS011;54486;51.442;6.778;2023-12-20T09:43:10;15.88;;;4.53;;
67696;SDS011;54486;51.442;6.778;2023-12-20T09:45:40;15.90;;;4.90;;
67696;SDS011;54486;51.442;6.778;2023-12-20T09:48:10;15.27;;;4.38;;
67696;SDS011;54486;51.442;6.778;2023-12-20T09:50:38;16.00;;;4.70;;
67696;SDS011;54486;51.442;6.778;2023-12-20T09:53:07;15.52;;;4.13;;
67696;SDS011;54486;51.442;6.778;2023-12-20T09:55:36;18.95;;;4.80;;
67696;SDS011;54486;51.442;6.778;2023-12-20T09:58:05;15.38;;;4.38;;
67696;SDS011;54486;51.442;6.778;2023-12-20T10:00:34;15.52;;;4.30;;
67696;SDS011;54486;51.442;6.778;2023-12-20T10:03:01;17.83;;;4.73;;
67696;SDS011;54486;51.442;6.778;2023-12-20T10:05:31;14.52;;;4.65;;
67696;SDS011;54486;51.442;6.778;2023-12-20T10:07:59;13.70;;;4.88;;
67696;SDS011;54486;51.442;6.778;2023-12-20T10:10:28;15.77;;;4.15;;
67696;SDS011;54486;51.442;6.778;2023-12-20T10:13:09;13.50;;;3.90;;
67696;SDS011;54486;51.442;6.778;2023-12-20T10:15:37;14.23;;;4.10;;
67696;SDS011;54486;51.442;6.778;2023-12-20T10:18:05;17.20;;;4.07;;
67696;SDS011;54486;51.442;6.778;2023-12-20T10:20:33;17.58;;;4.35;;
67696;SDS011;54486;51.442;6.778;2023-12-20T10:23:01;18.83;;;4.70;;
67696;SDS011;54486;51.442;6.778;2023-12-20T10:25:28;18.48;;;5.00;;
67696;SDS011;54486;51.442;6.778;2023-12-20T10:28:14;16.35;;;4.60;;
67696;SDS011;54486;51.442;6.778;2023-12-20T10:30:46;14.85;;;4.70;;
67696;SDS011;54486;51.442;6.778;2023-12-20T10:33:14;12.23;;;4.13;;
67696;SDS011;54486;51.442;6.778;2023-12-20T10:35:50;20.65;;;5.35;;
67696;SDS011;54486;51.442;6.778;2023-12-20T10:38:18;16.05;;;4.78;;
67696;SDS011;54486;51.442;6.778;2023-12-20T10:40:45;17.92;;;4.25;;
67696;SDS011;54486;51.442;6.778;2023-12-20T10:43:13;17.98;;;5.43;;
67696;SDS011;54486;51.442;6.778;2023-12-20T10:45:42;17.77;;;4.47;;
67696;SDS011;54486;51.442;6.778;2023-12-20T10:48:12;15.45;;;5.18;;
67696;SDS011;54486;51.442;6.778;2023-12-20T10:50:40;18.50;;;5.20;;
67696;SDS011;54486;51.442;6.778;2023-12-20T10:53:08;21.35;;;5.30;;
67696;SDS011;54486;51.442;6.778;2023-12-20T10:55:35;15.13;;;4.65;;
67696;SDS011;54486;51.442;6.778;2023-12-20T10:58:08;15.68;;;4.45;;
67696;SDS011;54486;51.442;6.778;2023-12-20T11:00:39;15.38;;;5.03;;
67696;SDS011;54486;51.442;6.778;2023-12-20T11:03:08;14.00;;;4.13;;
67696;SDS011;54486;51.442;6.778;2023-12-20T11:11:27;15.18;;;4.97;;
67696;SDS011;54486;51.442;6.778;2023-12-20T11:14:02;16.23;;;4.95;;
67696;SDS011;54486;51.442;6.778;2023-12-20T11:16:32;15.75;;;5.40;;
67696;SDS011;54486;51.442;6.778;2023-12-20T11:19:14;15.38;;;4.97;;
67696;SDS011;54486;51.442;6.778;2023-12-20T11:21:41;16.87;;;4.93;;
67696;SDS011;54486;51.442;6.778;2023-12-20T11:24:09;16.88;;;4.55;;
67696;SDS011;54486;51.442;6.778;2023-12-20T11:26:36;17.73;;;5.07;;
67696;SDS011;54486;51.442;6.778;2023-12-20T11:31:56;19.48;;;5.65;;
67696;SDS011;54486;51.442;6.778;2023-12-20T11:34:26;14.25;;;4.93;;
67696;SDS011;54486;51.442;6.778;2023-12-20T11:37:02;15.30;;;5.22;;
67696;SDS011;54486;51.442;6.778;2023-12-20T11:39:30;16.53;;;5.10;;
67696;SDS011;54486;51.442;6.778;2023-12-20T11:41:58;17.27;;;5.60;;
67696;SDS011;54486;51.442;6.778;2023-12-20T11:44:32;15.95;;;5.03;;
67696;SDS011;54486;51.442;6.778;2023-12-20T11:47:00;15.35;;;5.13;;
67696;SDS011;54486;51.442;6.778;2023-12-20T11:49:27;20.57;;;5.60;;
67696;SDS011;54486;51.442;6.778;2023-12-20T11:51:57;13.73;;;4.43;;
67696;SDS011;54486;51.442;6.778;2023-12-20T11:54:24;15.98;;;5.30;;
67696;SDS011;54486;51.442;6.778;2023-12-20T11:56:51;14.13;;;4.70;;
67696;SDS011;54486;51.442;6.778;2023-12-20T11:59:18;18.40;;;5.35;;
67696;SDS011;54486;51.442;6.778;2023-12-20T12:01:50;16.00;;;5.28;;
67696;SDS011;54486;51.442;6.778;2023-12-20T12:04:18;18.13;;;5.00;;
67696;SDS011;54486;51.442;6.778;2023-12-20T12:06:45;15.85;;;5.57;;
67696;SDS011;54486;51.442;6.778;2023-12-20T12:09:13;14.13;;;4.77;;
67696;SDS011;54486;51.442;6.778;2023-12-20T12:11:40;17.00;;;5.90;;
67696;SDS011;54486;51.442;6.778;2023-12-20T12:14:07;18.25;;;4.95;;
67696;SDS011;54486;51.442;6.778;2023-12-20T12:16:34;17.98;;;5.43;;
67696;SDS011;54486;51.442;6.778;2023-12-20T12:19:01;17.92;;;5.43;;
67696;SDS011;54486;51.442;6.778;2023-12-20T12:21:28;13.95;;;5.20;;
67696;SDS011;54486;51.442;6.778;2023-12-20T12:24:09;17.48;;;5.00;;
67696;SDS011;54486;51.442;6.778;2023-12-20T12:26:36;15.77;;;4.80;;
67696;SDS011;54486;51.442;6.778;2023-12-20T12:29:07;17.58;;;5.10;;
67696;SDS011;54486;51.442;6.778;2023-12-20T12:31:34;13.00;;;4.70;;
67696;SDS011;54486;51.442;6.778;2023-12-20T12:34:03;16.00;;;5.35;;
67696;SDS011;54486;51.442;6.778;2023-12-20T12:36:30;14.15;;;4.93;;
67696;SDS011;54486;51.442;6.778;2023-12-20T12:38:57;17.65;;;4.85;;
67696;SDS011;54486;51.442;6.778;2023-12-20T12:41:24;17.83;;;5.25;;
67696;SDS011;54486;51.442;6.778;2023-12-20T12:43:52;16.48;;;5.63;;
67696;SDS011;54486;51.442;6.778;2023-12-20T12:46:20;16.87;;;4.73;;
67696;SDS011;54486;51.442;6.778;2023-12-20T12:48:48;12.93;;;4.35;;
67696;SDS011;54486;51.442;6.778;2023-12-20T12:51:17;16.25;;;5.32;;
67696;SDS011;54486;51.442;6.778;2023-12-20T12:53:44;17.00;;;5.32;;
67696;SDS011;54486;51.442;6.778;2023-12-20T12:56:11;19.33;;;5.03;;
67696;SDS011;54486;51.442;6.778;2023-12-20T12:58:39;14.77;;;5.43;;
67696;SDS011;54486;51.442;6.778;2023-12-20T13:01:06;16.85;;;5.28;;
67696;SDS011;54486;51.442;6.778;2023-12-20T13:03:34;15.65;;;5.22;;
67696;SDS011;54486;51.442;6.778;2023-12-20T13:06:02;13.05;;;5.05;;
67696;SDS011;54486;51.442;6.778;2023-12-20T13:08:30;19.17;;;5.45;;
67696;SDS011;54486;51.442;6.778;2023-12-20T13:10:57;14.38;;;5.15;;
67696;SDS011;54486;51.442;6.778;2023-12-20T13:13:27;16.20;;;5.80;;
67696;SDS011;54486;51.442;6.778;2023-12-20T13:15:55;20.30;;;5.40;;
67696;SDS011;54486;51.442;6.778;2023-12-20T13:18:22;19.95;;;6.50;;
67696;SDS011;54486;51.442;6.778;2023-12-20T13:20:50;16.88;;;5.60;;
67696;SDS011;54486;51.442;6.778;2023-12-20T13:23:17;16.60;;;5.90;;
67696;SDS011;54486;51.442;6.778;2023-12-20T13:25:47;16.52;;;6.07;;
67696;SDS011;54486;51.442;6.778;2023-12-20T13:28:14;17.33;;;6.07;;
67696;SDS011;54486;51.442;6.778;2023-12-20T13:30:41;18.08;;;6.45;;
67696;SDS011;54486;51.442;6.778;2023-12-20T13:33:09;17.42;;;6.07;;
67696;SDS011;54486;51.442;6.778;2023-12-20T13:35:37;17.20;;;6.22;;
67696;SDS011;54486;51.442;6.778;2023-12-20T13:38:06;16.13;;;6.78;;
67696;SDS011;54486;51.442;6.778;2023-12-20T13:40:34;21.80;;;6.80;;
67696;SDS011;54486;51.442;6.778;2023-12-20T13:43:01;18.50;;;6.82;;
67696;SDS011;54486;51.442;6.778;2023-12-20T13:45:30;20.50;;;7.30;;
67696;SDS011;54486;51.442;6.778;2023-12-20T13:47:58;19.20;;;6.38;;
67696;SDS011;54486;51.442;6.778;2023-12-20T13:50:27;18.30;;;7.07;;
67696;SDS011;54486;51.442;6.778;2023-12-20T13:52:55;19.67;;;6.60;;
67696;SDS011;54486;51.442;6.778;2023-12-20T13:55:22;19.85;;;7.03;;
67696;SDS011;54486;51.442;6.778;2023-12-20T13:57:52;18.88;;;7.75;;
67696;SDS011;54486;51.442;6.778;2023-12-20T14:00:22;16.98;;;6.38;;
67696;SDS011;54486;51.442;6.778;2023-12-20T14:02:49;17.53;;;6.90;;
67696;SDS011;54486;51.442;6.778;2023-12-20T14:05:16;17.23;;;7.28;;
67696;SDS011;54486;51.442;6.778;2023-12-20T14:07:50;21.15;;;7.05;;
67696;SDS011;54486;51.442;6.778;2023-12-20T14:10:18;16.60;;;7.03;;
67696;SDS011;54486;51.442;6.778;2023-12-20T14:12:45;18.03;;;7.33;;
67696;SDS011;54486;51.442;6.778;2023-12-20T14:15:13;21.27;;;8.15;;
67696;SDS011;54486;51.442;6.778;2023-12-20T14:17:40;17.65;;;7.38;;
67696;SDS011;54486;51.442;6.778;2023-12-20T14:20:11;23.00;;;7.82;;
67696;SDS011;54486;51.442;6.778;2023-12-20T14:22:40;20.48;;;8.23;;
67696;SDS011;54486;51.442;6.778;2023-12-20T14:25:11;19.27;;;7.63;;
67696;SDS011;54486;51.442;6.778;2023-12-20T14:27:41;19.83;;;7.80;;
67696;SDS011;54486;51.442;6.778;2023-12-20T14:30:13;16.90;;;7.38;;
67696;SDS011;54486;51.442;6.778;2023-12-20T14:32:42;17.83;;;7.65;;
67696;SDS011;54486;51.442;6.778;2023-12-20T14:35:09;21.30;;;7.63;;
67696;SDS011;54486;51.442;6.778;2023-12-20T14:37:37;21.23;;;7.63;;
67696;SDS011;54486;51.442;6.778;2023-12-20T14:40:07;16.17;;;6.82;;
67696;SDS011;54486;51.442;6.778;2023-12-20T14:42:38;19.27;;;6.72;;
67696;SDS011;54486;51.442;6.778;2023-12-20T14:45:05;20.40;;;7.23;;
67696;SDS011;54486;51.442;6.778;2023-12-20T14:47:32;19.33;;;6.45;;